sensor_id;sensor_type;location;lat;lon;timestamp;P1;durP1;ratioP1;P2;durP2;ratioP2
20348;SDS011;10332;50.208;18.988;2023-05-07T00:02:10;11.93;;;7.82;;
20348;SDS011;10332;50.208;18.988;2023-05-07T00:04:37;8.55;;;6.65;;
20348;SDS011;10332;50.208;18.988;2023-05-07T00:07:05;12.15;;;7.53;;
20348;SDS011;10332;50.208;18.988;2023-05-07T00:09:33;10.90;;;7.68;;
20348;SDS011;10332;50.208;18.988;2023-05-07T00:12:00;11.32;;;7.57;;
20348;SDS011;10332;50.208;18.988;2023-05-07T00:14:28;10.70;;;8.00;;
20348;SDS011;10332;50.208;18.988;2023-05-07T00:16:55;12.35;;;8.52;;
20348;SDS011;10332;50.208;18.988;2023-05-07T00:19:22;10.98;;;8.07;;
20348;SDS011;10332;50.208;18.988;2023-05-07T00:21:50;12.00;;;9.35;;
20348;SDS011;10332;50.208;18.988;2023-05-07T00:24:20;13.57;;;8.73;;
20348;SDS011;10332;50.208;18.988;2023-05-07T00:26:47;12.30;;;9.85;;
20348;SDS011;10332;50.208;18.988;2023-05-07T00:29:15;14.20;;;10.63;;
20348;SDS011;10332;50.208;18.988;2023-05-07T00:31:42;11.93;;;8.68;;
20348;SDS011;10332;50.208;18.988;2023-05-07T00:34:10;14.15;;;9.23;;
20348;SDS011;10332;50.208;18.988;2023-05-07T00:36:37;12.48;;;9.35;;
20348;SDS011;10332;50.208;18.988;2023-05-07T00:39:04;16.40;;;11.07;;
20348;SDS011;10332;50.208;18.988;2023-05-07T00:41:32;17.90;;;12.15;;
20348;SDS011;10332;50.208;18.988;2023-05-07T00:43:59;21.63;;;13.20;;
20348;SDS011;10332;50.208;18.988;2023-05-07T00:46:28;20.70;;;13.63;;
20348;SDS011;10332;50.208;18.988;2023-05-07T00:48:59;17.30;;;11.70;;
20348;SDS011;10332;50.208;18.988;2023-05-07T00:51:27;18.83;;;13.60;;
20348;SDS011;10332;50.208;18.988;2023-05-07T00:53:57;18.92;;;12.90;;
20348;SDS011;10332;50.208;18.988;2023-05-07T00:56:26;21.40;;;14.40;;
20348;SDS011;10332;50.208;18.988;2023-05-07T00:58:54;18.52;;;12.18;;
20348;SDS011;10332;50.208;18.988;2023-05-07T01:01:22;30.83;;;19.92;;
20348;SDS011;10332;50.208;18.988;2023-05-07T01:03:49;24.50;;;15.95;;
20348;SDS011;10332;50.208;18.988;2023-05-07T01:06:17;25.13;;;13.93;;
20348;SDS011;10332;50.208;18.988;2023-05-07T01:08:48;19.20;;;13.02;;
20348;SDS011;10332;50.208;18.988;2023-05-07T01:11:17;14.35;;;10.68;;
20348;SDS011;10332;50.208;18.988;2023-05-07T01:13:47;17.90;;;11.68;;
20348;SDS011;10332;50.208;18.988;2023-05-07T01:16:16;18.70;;;12.80;;
20348;SDS011;10332;50.208;18.988;2023-05-07T01:18:44;15.93;;;11.88;;
20348;SDS011;10332;50.208;18.988;2023-05-07T01:21:15;14.32;;;10.90;;
20348;SDS011;10332;50.208;18.988;2023-05-07T01:23:44;16.63;;;10.95;;
20348;SDS011;10332;50.208;18.988;2023-05-07T01:26:13;19.52;;;14.15;;
20348;SDS011;10332;50.208;18.988;2023-05-07T01:28:41;23.13;;;15.18;;
20348;SDS011;10332;50.208;18.988;2023-05-07T01:31:08;21.92;;;15.48;;
20348;SDS011;10332;50.208;18.988;2023-05-07T01:33:37;22.92;;;16.38;;
20348;SDS011;10332;50.208;18.988;2023-05-07T01:36:07;19.98;;;13.95;;
20348;SDS011;10332;50.208;18.988;2023-05-07T01:38:37;23.92;;;15.10;;
20348;SDS011;10332;50.208;18.988;2023-05-07T01:41:07;25.48;;;16.63;;
20348;SDS011;10332;50.208;18.988;2023-05-07T01:43:35;20.75;;;13.80;;
20348;SDS011;10332;50.208;18.988;2023-05-07T01:46:03;21.77;;;14.80;;
20348;SDS011;10332;50.208;18.988;2023-05-07T01:48:32;17.83;;;12.63;;
20348;SDS011;10332;50.208;18.988;2023-05-07T01:51:01;14.55;;;10.90;;
20348;SDS011;10332;50.208;18.988;2023-05-07T01:53:34;13.18;;;9.82;;
20348;SDS011;10332;50.208;18.988;2023-05-07T01:56:07;11.75;;;8.63;;
20348;SDS011;10332;50.208;18.988;2023-05-07T01:58:34;11.77;;;8.93;;
20348;SDS011;10332;50.208;18.988;2023-05-07T02:01:02;13.52;;;10.27;;
20348;SDS011;10332;50.208;18.988;2023-05-07T02:03:29;14.90;;;10.25;;
20348;SDS011;10332;50.208;18.988;2023-05-07T02:05:57;12.32;;;10.15;;
20348;SDS011;10332;50.208;18.988;2023-05-07T02:08:24;14.85;;;10.68;;
20348;SDS011;10332;50.208;18.988;2023-05-07T02:10:52;15.63;;;10.73;;
20348;SDS011;10332;50.208;18.988;2023-05-07T02:13:20;13.15;;;10.00;;
20348;SDS011;10332;50.208;18.988;2023-05-07T02:15:49;13.55;;;10.20;;
20348;SDS011;10332;50.208;18.988;2023-05-07T02:18:17;12.60;;;9.55;;
20348;SDS011;10332;50.208;18.988;2023-05-07T02:20:44;14.27;;;11.00;;
20348;SDS011;10332;50.208;18.988;2023-05-07T02:23:12;13.65;;;10.93;;
20348;SDS011;10332;50.208;18.988;2023-05-07T02:25:39;17.13;;;12.30;;
20348;SDS011;10332;50.208;18.988;2023-05-07T02:28:07;13.15;;;10.82;;
20348;SDS011;10332;50.208;18.988;2023-05-07T02:30:34;18.33;;;14.18;;
20348;SDS011;10332;50.208;18.988;2023-05-07T02:33:03;18.13;;;13.80;;
20348;SDS011;10332;50.208;18.988;2023-05-07T02:35:31;13.10;;;10.10;;
20348;SDS011;10332;50.208;18.988;2023-05-07T02:37:58;12.75;;;9.82;;
20348;SDS011;10332;50.208;18.988;2023-05-07T02:40:25;12.52;;;9.10;;
20348;SDS011;10332;50.208;18.988;2023-05-07T02:42:53;14.75;;;11.20;;
20348;SDS011;10332;50.208;18.988;2023-05-07T02:45:20;13.20;;;9.93;;
20348;SDS011;10332;50.208;18.988;2023-05-07T02:47:48;11.57;;;9.25;;
20348;SDS011;10332;50.208;18.988;2023-05-07T02:50:15;13.75;;;10.75;;
20348;SDS011;10332;50.208;18.988;2023-05-07T02:52:43;13.00;;;9.82;;
20348;SDS011;10332;50.208;18.988;2023-05-07T02:55:10;10.88;;;9.45;;
20348;SDS011;10332;50.208;18.988;2023-05-07T02:57:38;16.02;;;12.65;;
20348;SDS011;10332;50.208;18.988;2023-05-07T03:00:12;13.52;;;11.20;;
20348;SDS011;10332;50.208;18.988;2023-05-07T03:02:46;11.95;;;9.18;;
20348;SDS011;10332;50.208;18.988;2023-05-07T03:05:13;9.73;;;7.60;;
20348;SDS011;10332;50.208;18.988;2023-05-07T03:07:41;11.15;;;7.60;;
20348;SDS011;10332;50.208;18.988;2023-05-07T03:10:12;7.78;;;6.32;;
20348;SDS011;10332;50.208;18.988;2023-05-07T03:12:40;9.43;;;6.68;;
20348;SDS011;10332;50.208;18.988;2023-05-07T03:15:08;7.57;;;5.68;;
20348;SDS011;10332;50.208;18.988;2023-05-07T03:17:37;7.38;;;5.40;;
20348;SDS011;10332;50.208;18.988;2023-05-07T03:20:05;6.95;;;5.90;;
20348;SDS011;10332;50.208;18.988;2023-05-07T03:22:34;9.32;;;5.78;;
20348;SDS011;10332;50.208;18.988;2023-05-07T03:25:01;7.93;;;4.95;;
20348;SDS011;10332;50.208;18.988;2023-05-07T03:27:29;7.43;;;4.75;;
20348;SDS011;10332;50.208;18.988;2023-05-07T03:29:56;5.88;;;4.68;;
20348;SDS011;10332;50.208;18.988;2023-05-07T03:32:24;6.70;;;4.60;;
20348;SDS011;10332;50.208;18.988;2023-05-07T03:34:51;5.10;;;4.30;;
20348;SDS011;10332;50.208;18.988;2023-05-07T03:37:19;5.20;;;4.32;;
20348;SDS011;10332;50.208;18.988;2023-05-07T03:39:48;6.47;;;4.35;;
20348;SDS011;10332;50.208;18.988;2023-05-07T03:42:15;5.07;;;4.38;;
20348;SDS011;10332;50.208;18.988;2023-05-07T03:44:43;6.82;;;4.88;;
20348;SDS011;10332;50.208;18.988;2023-05-07T03:47:10;5.97;;;4.30;;
20348;SDS011;10332;50.208;18.988;2023-05-07T03:49:37;6.40;;;4.55;;
20348;SDS011;10332;50.208;18.988;2023-05-07T03:52:05;4.47;;;3.45;;
20348;SDS011;10332;50.208;18.988;2023-05-07T03:54:33;5.13;;;3.35;;
20348;SDS011;10332;50.208;18.988;2023-05-07T03:57:00;6.22;;;3.30;;
20348;SDS011;10332;50.208;18.988;2023-05-07T03:59:28;4.70;;;3.35;;
20348;SDS011;10332;50.208;18.988;2023-05-07T04:01:55;3.90;;;3.47;;
20348;SDS011;10332;50.208;18.988;2023-05-07T04:04:23;5.25;;;3.50;;
20348;SDS011;10332;50.208;18.988;2023-05-07T04:06:51;4.30;;;3.47;;
20348;SDS011;10332;50.208;18.988;2023-05-07T04:09:18;4.32;;;3.72;;
20348;SDS011;10332;50.208;18.988;2023-05-07T04:11:45;5.10;;;3.75;;
20348;SDS011;10332;50.208;18.988;2023-05-07T04:14:13;6.72;;;3.75;;
20348;SDS011;10332;50.208;18.988;2023-05-07T04:16:40;5.40;;;3.58;;
20348;SDS011;10332;50.208;18.988;2023-05-07T04:19:08;5.82;;;4.15;;
20348;SDS011;10332;50.208;18.988;2023-05-07T04:21:35;4.15;;;3.15;;
20348;SDS011;10332;50.208;18.988;2023-05-07T04:24:03;5.32;;;3.38;;
20348;SDS011;10332;50.208;18.988;2023-05-07T04:26:30;3.80;;;3.40;;
20348;SDS011;10332;50.208;18.988;2023-05-07T04:28:58;4.60;;;3.20;;
20348;SDS011;10332;50.208;18.988;2023-05-07T04:31:26;4.88;;;3.15;;
20348;SDS011;10332;50.208;18.988;2023-05-07T04:33:53;3.83;;;3.00;;
20348;SDS011;10332;50.208;18.988;2023-05-07T04:36:21;5.60;;;3.10;;
20348;SDS011;10332;50.208;18.988;2023-05-07T04:38:48;4.38;;;3.20;;
20348;SDS011;10332;50.208;18.988;2023-05-07T04:41:16;6.18;;;3.67;;
20348;SDS011;10332;50.208;18.988;2023-05-07T04:43:44;9.10;;;6.45;;
20348;SDS011;10332;50.208;18.988;2023-05-07T04:46:12;13.43;;;10.15;;
20348;SDS011;10332;50.208;18.988;2023-05-07T04:48:39;11.40;;;8.85;;
20348;SDS011;10332;50.208;18.988;2023-05-07T04:51:07;6.55;;;5.60;;
20348;SDS011;10332;50.208;18.988;2023-05-07T04:53:34;6.25;;;4.65;;
20348;SDS011;10332;50.208;18.988;2023-05-07T04:56:02;8.13;;;5.90;;
20348;SDS011;10332;50.208;18.988;2023-05-07T04:58:29;9.15;;;7.22;;
20348;SDS011;10332;50.208;18.988;2023-05-07T05:00:59;8.77;;;6.75;;
20348;SDS011;10332;50.208;18.988;2023-05-07T05:03:27;7.60;;;6.07;;
20348;SDS011;10332;50.208;18.988;2023-05-07T05:05:54;9.50;;;7.03;;
20348;SDS011;10332;50.208;18.988;2023-05-07T05:08:22;4.70;;;4.20;;
20348;SDS011;10332;50.208;18.988;2023-05-07T05:10:49;6.32;;;5.25;;
20348;SDS011;10332;50.208;18.988;2023-05-07T05:13:17;7.97;;;6.07;;
20348;SDS011;10332;50.208;18.988;2023-05-07T05:15:45;7.68;;;5.45;;
20348;SDS011;10332;50.208;18.988;2023-05-07T05:18:12;6.30;;;5.40;;
20348;SDS011;10332;50.208;18.988;2023-05-07T05:20:40;7.10;;;6.15;;
20348;SDS011;10332;50.208;18.988;2023-05-07T05:23:07;7.70;;;4.78;;
20348;SDS011;10332;50.208;18.988;2023-05-07T05:25:35;7.00;;;5.50;;
20348;SDS011;10332;50.208;18.988;2023-05-07T05:28:02;8.90;;;6.63;;
20348;SDS011;10332;50.208;18.988;2023-05-07T05:30:30;6.13;;;4.57;;
20348;SDS011;10332;50.208;18.988;2023-05-07T05:32:57;6.20;;;5.47;;
20348;SDS011;10332;50.208;18.988;2023-05-07T05:35:25;9.60;;;7.85;;
20348;SDS011;10332;50.208;18.988;2023-05-07T05:37:52;10.30;;;8.07;;
20348;SDS011;10332;50.208;18.988;2023-05-07T05:40:20;8.00;;;6.97;;
20348;SDS011;10332;50.208;18.988;2023-05-07T05:42:47;7.47;;;5.93;;
20348;SDS011;10332;50.208;18.988;2023-05-07T05:45:14;7.53;;;5.30;;
20348;SDS011;10332;50.208;18.988;2023-05-07T05:47:42;4.97;;;3.28;;
20348;SDS011;10332;50.208;18.988;2023-05-07T05:50:09;4.20;;;3.50;;
20348;SDS011;10332;50.208;18.988;2023-05-07T05:52:37;4.88;;;3.13;;
20348;SDS011;10332;50.208;18.988;2023-05-07T05:55:05;4.35;;;2.70;;
20348;SDS011;10332;50.208;18.988;2023-05-07T05:57:33;5.75;;;3.72;;
20348;SDS011;10332;50.208;18.988;2023-05-07T06:00:01;7.07;;;5.53;;
20348;SDS011;10332;50.208;18.988;2023-05-07T06:02:29;5.10;;;4.18;;
20348;SDS011;10332;50.208;18.988;2023-05-07T06:04:57;6.78;;;5.97;;
20348;SDS011;10332;50.208;18.988;2023-05-07T06:07:24;6.32;;;5.00;;
20348;SDS011;10332;50.208;18.988;2023-05-07T06:09:52;6.13;;;4.50;;
20348;SDS011;10332;50.208;18.988;2023-05-07T06:12:20;5.45;;;4.40;;
20348;SDS011;10332;50.208;18.988;2023-05-07T06:14:48;5.38;;;2.90;;
20348;SDS011;10332;50.208;18.988;2023-05-07T06:17:15;5.50;;;4.32;;
20348;SDS011;10332;50.208;18.988;2023-05-07T06:19:46;6.30;;;5.70;;
20348;SDS011;10332;50.208;18.988;2023-05-07T06:22:13;6.05;;;5.10;;
20348;SDS011;10332;50.208;18.988;2023-05-07T06:24:41;6.22;;;5.03;;
20348;SDS011;10332;50.208;18.988;2023-05-07T06:27:09;8.40;;;6.05;;
20348;SDS011;10332;50.208;18.988;2023-05-07T06:29:37;6.13;;;5.20;;
20348;SDS011;10332;50.208;18.988;2023-05-07T06:32:10;6.63;;;5.93;;
20348;SDS011;10332;50.208;18.988;2023-05-07T06:34:40;3.70;;;3.28;;
20348;SDS011;10332;50.208;18.988;2023-05-07T06:37:07;3.63;;;3.13;;
20348;SDS011;10332;50.208;18.988;2023-05-07T06:39:35;5.18;;;3.08;;
20348;SDS011;10332;50.208;18.988;2023-05-07T06:42:02;5.25;;;3.45;;
20348;SDS011;10332;50.208;18.988;2023-05-07T06:44:31;5.43;;;2.92;;
20348;SDS011;10332;50.208;18.988;2023-05-07T06:46:58;5.80;;;4.25;;
20348;SDS011;10332;50.208;18.988;2023-05-07T06:49:26;5.28;;;3.80;;
20348;SDS011;10332;50.208;18.988;2023-05-07T06:51:53;5.78;;;4.40;;
20348;SDS011;10332;50.208;18.988;2023-05-07T06:54:22;8.05;;;5.75;;
20348;SDS011;10332;50.208;18.988;2023-05-07T06:56:49;8.70;;;7.80;;
20348;SDS011;10332;50.208;18.988;2023-05-07T06:59:17;9.27;;;7.65;;
20348;SDS011;10332;50.208;18.988;2023-05-07T07:01:45;7.47;;;5.90;;
20348;SDS011;10332;50.208;18.988;2023-05-07T07:04:13;4.78;;;4.20;;
20348;SDS011;10332;50.208;18.988;2023-05-07T07:06:41;6.05;;;3.53;;
20348;SDS011;10332;50.208;18.988;2023-05-07T07:09:08;3.92;;;3.47;;
20348;SDS011;10332;50.208;18.988;2023-05-07T07:11:36;5.43;;;4.45;;
20348;SDS011;10332;50.208;18.988;2023-05-07T07:14:03;7.20;;;5.22;;
20348;SDS011;10332;50.208;18.988;2023-05-07T07:16:31;5.20;;;4.70;;
20348;SDS011;10332;50.208;18.988;2023-05-07T07:18:59;6.65;;;5.72;;
20348;SDS011;10332;50.208;18.988;2023-05-07T07:21:26;5.70;;;4.88;;
20348;SDS011;10332;50.208;18.988;2023-05-07T07:23:54;8.50;;;6.57;;
20348;SDS011;10332;50.208;18.988;2023-05-07T07:26:21;7.68;;;6.88;;
20348;SDS011;10332;50.208;18.988;2023-05-07T07:28:49;8.98;;;6.25;;
20348;SDS011;10332;50.208;18.988;2023-05-07T07:31:16;9.77;;;7.63;;
20348;SDS011;10332;50.208;18.988;2023-05-07T07:33:44;7.28;;;5.72;;
20348;SDS011;10332;50.208;18.988;2023-05-07T07:36:11;6.45;;;5.07;;
20348;SDS011;10332;50.208;18.988;2023-05-07T07:38:39;5.75;;;5.03;;
20348;SDS011;10332;50.208;18.988;2023-05-07T07:41:09;7.10;;;6.40;;
20348;SDS011;10332;50.208;18.988;2023-05-07T07:43:37;5.57;;;4.50;;
20348;SDS011;10332;50.208;18.988;2023-05-07T07:46:04;5.40;;;4.90;;
20348;SDS011;10332;50.208;18.988;2023-05-07T07:48:32;6.85;;;5.38;;
20348;SDS011;10332;50.208;18.988;2023-05-07T07:51:00;5.15;;;4.60;;
20348;SDS011;10332;50.208;18.988;2023-05-07T07:53:27;7.53;;;5.30;;
20348;SDS011;10332;50.208;18.988;2023-05-07T07:55:55;5.60;;;4.13;;
20348;SDS011;10332;50.208;18.988;2023-05-07T07:58:25;4.72;;;4.22;;
20348;SDS011;10332;50.208;18.988;2023-05-07T08:00:52;4.88;;;3.65;;
20348;SDS011;10332;50.208;18.988;2023-05-07T08:03:22;3.95;;;3.55;;
20348;SDS011;10332;50.208;18.988;2023-05-07T08:05:50;3.70;;;3.30;;
20348;SDS011;10332;50.208;18.988;2023-05-07T08:08:18;4.43;;;3.75;;
20348;SDS011;10332;50.208;18.988;2023-05-07T08:10:45;3.63;;;3.30;;
20348;SDS011;10332;50.208;18.988;2023-05-07T08:13:12;3.17;;;2.60;;
20348;SDS011;10332;50.208;18.988;2023-05-07T08:15:40;3.70;;;3.17;;
20348;SDS011;10332;50.208;18.988;2023-05-07T08:18:08;3.67;;;2.95;;
20348;SDS011;10332;50.208;18.988;2023-05-07T08:20:35;6.30;;;4.80;;
20348;SDS011;10332;50.208;18.988;2023-05-07T08:23:06;6.93;;;5.00;;
20348;SDS011;10332;50.208;18.988;2023-05-07T08:25:34;7.20;;;5.25;;
20348;SDS011;10332;50.208;18.988;2023-05-07T08:28:04;6.07;;;4.35;;
20348;SDS011;10332;50.208;18.988;2023-05-07T08:30:35;5.53;;;4.35;;
20348;SDS011;10332;50.208;18.988;2023-05-07T08:33:03;5.85;;;4.18;;
20348;SDS011;10332;50.208;18.988;2023-05-07T08:35:30;3.47;;;3.03;;
20348;SDS011;10332;50.208;18.988;2023-05-07T08:37:58;4.05;;;2.83;;
20348;SDS011;10332;50.208;18.988;2023-05-07T08:40:25;3.20;;;2.65;;
20348;SDS011;10332;50.208;18.988;2023-05-07T08:42:54;5.45;;;4.90;;
20348;SDS011;10332;50.208;18.988;2023-05-07T08:45:24;16.60;;;11.00;;
20348;SDS011;10332;50.208;18.988;2023-05-07T08:47:58;5.55;;;4.50;;
20348;SDS011;10332;50.208;18.988;2023-05-07T08:50:29;4.50;;;3.42;;
20348;SDS011;10332;50.208;18.988;2023-05-07T08:52:56;4.07;;;2.97;;
20348;SDS011;10332;50.208;18.988;2023-05-07T08:55:24;3.88;;;3.47;;
20348;SDS011;10332;50.208;18.988;2023-05-07T08:57:52;5.18;;;4.50;;
20348;SDS011;10332;50.208;18.988;2023-05-07T09:00:19;10.40;;;7.80;;
20348;SDS011;10332;50.208;18.988;2023-05-07T09:02:47;4.30;;;3.47;;
20348;SDS011;10332;50.208;18.988;2023-05-07T09:05:14;8.20;;;6.30;;
20348;SDS011;10332;50.208;18.988;2023-05-07T09:07:42;6.07;;;4.45;;
20348;SDS011;10332;50.208;18.988;2023-05-07T09:10:10;5.55;;;4.30;;
20348;SDS011;10332;50.208;18.988;2023-05-07T09:12:39;3.95;;;3.10;;
20348;SDS011;10332;50.208;18.988;2023-05-07T09:15:07;5.95;;;4.10;;
20348;SDS011;10332;50.208;18.988;2023-05-07T09:17:35;5.35;;;4.65;;
20348;SDS011;10332;50.208;18.988;2023-05-07T09:20:04;7.65;;;5.15;;
20348;SDS011;10332;50.208;18.988;2023-05-07T09:22:37;8.05;;;6.15;;
20348;SDS011;10332;50.208;18.988;2023-05-07T09:25:08;13.48;;;9.00;;
20348;SDS011;10332;50.208;18.988;2023-05-07T09:27:36;10.95;;;6.88;;
20348;SDS011;10332;50.208;18.988;2023-05-07T09:30:07;7.93;;;6.30;;
20348;SDS011;10332;50.208;18.988;2023-05-07T09:32:36;3.60;;;3.30;;
20348;SDS011;10332;50.208;18.988;2023-05-07T09:35:13;4.57;;;3.80;;
20348;SDS011;10332;50.208;18.988;2023-05-07T09:37:48;3.83;;;3.40;;
20348;SDS011;10332;50.208;18.988;2023-05-07T09:40:20;6.60;;;5.50;;
20348;SDS011;10332;50.208;18.988;2023-05-07T09:42:49;3.63;;;3.05;;
20348;SDS011;10332;50.208;18.988;2023-05-07T09:45:27;5.68;;;4.13;;
20348;SDS011;10332;50.208;18.988;2023-05-07T09:47:56;5.68;;;3.40;;
20348;SDS011;10332;50.208;18.988;2023-05-07T09:50:29;3.60;;;3.25;;
20348;SDS011;10332;50.208;18.988;2023-05-07T09:53:04;4.47;;;4.07;;
20348;SDS011;10332;50.208;18.988;2023-05-07T09:55:32;4.05;;;3.67;;
20348;SDS011;10332;50.208;18.988;2023-05-07T09:58:00;3.70;;;2.75;;
20348;SDS011;10332;50.208;18.988;2023-05-07T10:00:31;3.53;;;2.85;;
20348;SDS011;10332;50.208;18.988;2023-05-07T10:02:59;13.80;;;9.02;;
20348;SDS011;10332;50.208;18.988;2023-05-07T10:05:30;5.65;;;4.35;;
20348;SDS011;10332;50.208;18.988;2023-05-07T10:07:59;4.20;;;2.97;;
20348;SDS011;10332;50.208;18.988;2023-05-07T10:10:30;3.72;;;3.00;;
20348;SDS011;10332;50.208;18.988;2023-05-07T10:13:01;14.93;;;10.88;;
20348;SDS011;10332;50.208;18.988;2023-05-07T10:15:32;4.80;;;3.80;;
20348;SDS011;10332;50.208;18.988;2023-05-07T10:18:02;4.78;;;3.60;;
20348;SDS011;10332;50.208;18.988;2023-05-07T10:20:33;6.28;;;4.20;;
20348;SDS011;10332;50.208;18.988;2023-05-07T10:23:04;4.38;;;3.40;;
20348;SDS011;10332;50.208;18.988;2023-05-07T10:25:32;3.80;;;3.28;;
20348;SDS011;10332;50.208;18.988;2023-05-07T10:28:01;4.38;;;3.30;;
20348;SDS011;10332;50.208;18.988;2023-05-07T10:33:38;3.97;;;2.92;;
20348;SDS011;10332;50.208;18.988;2023-05-07T10:36:07;8.50;;;6.10;;
20348;SDS011;10332;50.208;18.988;2023-05-07T10:38:35;5.60;;;3.88;;
20348;SDS011;10332;50.208;18.988;2023-05-07T10:41:03;6.45;;;4.38;;
20348;SDS011;10332;50.208;18.988;2023-05-07T10:43:42;5.53;;;3.60;;
20348;SDS011;10332;50.208;18.988;2023-05-07T10:51:30;5.35;;;3.78;;
20348;SDS011;10332;50.208;18.988;2023-05-07T10:56:39;4.82;;;3.92;;
20348;SDS011;10332;50.208;18.988;2023-05-07T10:59:44;6.82;;;4.60;;
20348;SDS011;10332;50.208;18.988;2023-05-07T11:02:08;5.68;;;4.50;;
20348;SDS011;10332;50.208;18.988;2023-05-07T11:04:38;6.72;;;5.05;;
20348;SDS011;10332;50.208;18.988;2023-05-07T11:15:11;6.25;;;4.30;;
20348;SDS011;10332;50.208;18.988;2023-05-07T11:17:52;5.65;;;4.30;;
20348;SDS011;10332;50.208;18.988;2023-05-07T11:26:08;11.60;;;9.20;;
20348;SDS011;10332;50.208;18.988;2023-05-07T11:28:41;10.10;;;7.75;;
20348;SDS011;10332;50.208;18.988;2023-05-07T11:31:10;5.85;;;5.22;;
20348;SDS011;10332;50.208;18.988;2023-05-07T11:33:38;9.60;;;5.13;;
20348;SDS011;10332;50.208;18.988;2023-05-07T11:36:07;7.75;;;5.22;;
20348;SDS011;10332;50.208;18.988;2023-05-07T11:38:35;8.32;;;6.40;;
20348;SDS011;10332;50.208;18.988;2023-05-07T11:41:04;8.13;;;6.55;;
20348;SDS011;10332;50.208;18.988;2023-05-07T11:43:32;9.07;;;7.50;;
20348;SDS011;10332;50.208;18.988;2023-05-07T11:46:06;9.95;;;7.60;;
20348;SDS011;10332;50.208;18.988;2023-05-07T11:48:38;8.88;;;7.97;;
20348;SDS011;10332;50.208;18.988;2023-05-07T11:51:08;11.13;;;9.10;;
20348;SDS011;10332;50.208;18.988;2023-05-07T11:53:38;9.55;;;8.30;;
20348;SDS011;10332;50.208;18.988;2023-05-07T11:56:09;10.07;;;8.98;;
20348;SDS011;10332;50.208;18.988;2023-05-07T11:58:39;10.77;;;9.68;;
20348;SDS011;10332;50.208;18.988;2023-05-07T12:01:09;9.82;;;8.55;;
20348;SDS011;10332;50.208;18.988;2023-05-07T12:03:41;11.05;;;8.52;;
20348;SDS011;10332;50.208;18.988;2023-05-07T12:06:14;9.23;;;7.57;;
20348;SDS011;10332;50.208;18.988;2023-05-07T12:08:43;9.15;;;8.23;;
20348;SDS011;10332;50.208;18.988;2023-05-07T12:11:21;9.07;;;7.60;;
20348;SDS011;10332;50.208;18.988;2023-05-07T12:13:50;8.82;;;7.60;;
20348;SDS011;10332;50.208;18.988;2023-05-07T12:16:18;10.13;;;8.27;;
20348;SDS011;10332;50.208;18.988;2023-05-07T12:18:46;11.20;;;8.82;;
20348;SDS011;10332;50.208;18.988;2023-05-07T12:21:15;8.95;;;7.75;;
20348;SDS011;10332;50.208;18.988;2023-05-07T12:23:43;11.40;;;9.02;;
20348;SDS011;10332;50.208;18.988;2023-05-07T12:26:12;11.07;;;9.15;;
20348;SDS011;10332;50.208;18.988;2023-05-07T12:28:39;11.85;;;9.57;;
20348;SDS011;10332;50.208;18.988;2023-05-07T12:31:07;10.85;;;9.27;;
20348;SDS011;10332;50.208;18.988;2023-05-07T12:33:35;10.45;;;8.90;;
20348;SDS011;10332;50.208;18.988;2023-05-07T12:36:04;12.35;;;10.05;;
20348;SDS011;10332;50.208;18.988;2023-05-07T12:38:39;11.55;;;8.60;;
20348;SDS011;10332;50.208;18.988;2023-05-07T12:41:10;12.13;;;8.80;;
20348;SDS011;10332;50.208;18.988;2023-05-07T12:43:39;10.57;;;8.75;;
20348;SDS011;10332;50.208;18.988;2023-05-07T12:46:06;11.35;;;8.52;;
20348;SDS011;10332;50.208;18.988;2023-05-07T12:48:38;12.25;;;9.30;;
20348;SDS011;10332;50.208;18.988;2023-05-07T12:51:12;10.02;;;8.57;;
20348;SDS011;10332;50.208;18.988;2023-05-07T12:53:41;8.98;;;7.43;;
20348;SDS011;10332;50.208;18.988;2023-05-07T12:56:10;8.73;;;7.10;;
20348;SDS011;10332;50.208;18.988;2023-05-07T12:58:37;10.05;;;7.20;;
20348;SDS011;10332;50.208;18.988;2023-05-07T13:01:05;7.80;;;6.68;;
20348;SDS011;10332;50.208;18.988;2023-05-07T13:03:37;8.95;;;6.32;;
20348;SDS011;10332;50.208;18.988;2023-05-07T13:06:06;10.20;;;6.60;;
20348;SDS011;10332;50.208;18.988;2023-05-07T13:08:37;10.02;;;7.22;;
20348;SDS011;10332;50.208;18.988;2023-05-07T13:11:10;8.75;;;7.00;;
20348;SDS011;10332;50.208;18.988;2023-05-07T13:13:39;10.77;;;7.82;;
20348;SDS011;10332;50.208;18.988;2023-05-07T13:16:09;10.13;;;7.80;;
20348;SDS011;10332;50.208;18.988;2023-05-07T13:18:38;8.00;;;7.20;;
20348;SDS011;10332;50.208;18.988;2023-05-07T13:21:08;8.80;;;6.93;;
20348;SDS011;10332;50.208;18.988;2023-05-07T13:23:37;8.98;;;7.90;;
20348;SDS011;10332;50.208;18.988;2023-05-07T13:26:05;10.02;;;7.40;;
20348;SDS011;10332;50.208;18.988;2023-05-07T13:28:52;9.98;;;7.28;;
20348;SDS011;10332;50.208;18.988;2023-05-07T13:31:21;11.45;;;7.35;;
20348;SDS011;10332;50.208;18.988;2023-05-07T13:33:48;8.05;;;6.00;;
20348;SDS011;10332;50.208;18.988;2023-05-07T13:36:16;9.07;;;6.60;;
20348;SDS011;10332;50.208;18.988;2023-05-07T13:38:44;9.20;;;6.22;;
20348;SDS011;10332;50.208;18.988;2023-05-07T13:41:11;7.90;;;6.05;;
20348;SDS011;10332;50.208;18.988;2023-05-07T13:43:39;7.93;;;5.72;;
20348;SDS011;10332;50.208;18.988;2023-05-07T13:46:07;9.55;;;6.07;;
20348;SDS011;10332;50.208;18.988;2023-05-07T13:48:35;6.78;;;5.65;;
20348;SDS011;10332;50.208;18.988;2023-05-07T13:51:02;7.65;;;6.05;;
20348;SDS011;10332;50.208;18.988;2023-05-07T13:53:29;8.50;;;6.20;;
20348;SDS011;10332;50.208;18.988;2023-05-07T13:55:57;8.18;;;5.68;;
20348;SDS011;10332;50.208;18.988;2023-05-07T13:58:24;6.57;;;5.15;;
20348;SDS011;10332;50.208;18.988;2023-05-07T14:00:52;8.27;;;5.72;;
20348;SDS011;10332;50.208;18.988;2023-05-07T14:03:19;15.82;;;10.55;;
20348;SDS011;10332;50.208;18.988;2023-05-07T14:05:47;13.90;;;9.93;;
20348;SDS011;10332;50.208;18.988;2023-05-07T14:08:16;12.10;;;8.70;;
20348;SDS011;10332;50.208;18.988;2023-05-07T14:10:46;12.13;;;8.07;;
20348;SDS011;10332;50.208;18.988;2023-05-07T14:13:13;8.45;;;5.57;;
20348;SDS011;10332;50.208;18.988;2023-05-07T14:15:41;7.78;;;5.03;;
20348;SDS011;10332;50.208;18.988;2023-05-07T14:18:12;6.38;;;4.93;;
20348;SDS011;10332;50.208;18.988;2023-05-07T14:20:40;7.00;;;5.43;;
20348;SDS011;10332;50.208;18.988;2023-05-07T14:23:09;6.82;;;5.30;;
20348;SDS011;10332;50.208;18.988;2023-05-07T14:25:37;17.50;;;10.82;;
20348;SDS011;10332;50.208;18.988;2023-05-07T14:28:04;7.57;;;5.95;;
20348;SDS011;10332;50.208;18.988;2023-05-07T14:30:34;7.05;;;4.88;;
20348;SDS011;10332;50.208;18.988;2023-05-07T14:33:02;11.90;;;7.25;;
20348;SDS011;10332;50.208;18.988;2023-05-07T14:35:29;15.55;;;9.82;;
20348;SDS011;10332;50.208;18.988;2023-05-07T14:37:57;14.38;;;8.68;;
20348;SDS011;10332;50.208;18.988;2023-05-07T14:40:25;12.85;;;7.65;;
20348;SDS011;10332;50.208;18.988;2023-05-07T14:42:52;11.77;;;7.05;;
20348;SDS011;10332;50.208;18.988;2023-05-07T14:45:20;20.33;;;9.27;;
20348;SDS011;10332;50.208;18.988;2023-05-07T14:47:48;14.55;;;8.05;;
20348;SDS011;10332;50.208;18.988;2023-05-07T14:50:15;10.48;;;6.15;;
20348;SDS011;10332;50.208;18.988;2023-05-07T14:52:43;10.25;;;5.90;;
20348;SDS011;10332;50.208;18.988;2023-05-07T14:55:11;11.00;;;6.72;;
20348;SDS011;10332;50.208;18.988;2023-05-07T14:57:39;14.85;;;8.02;;
20348;SDS011;10332;50.208;18.988;2023-05-07T15:00:07;16.13;;;9.27;;
20348;SDS011;10332;50.208;18.988;2023-05-07T15:02:36;16.30;;;8.98;;